createdAt,value
2022-10-17T00:00:39.289Z,79.92
2022-10-17T00:03:08.629Z,79.79
2022-10-17T00:05:41.331Z,80.29
2022-10-17T00:08:09.826Z,80.75
2022-10-17T00:10:38.188Z,80.89
2022-10-17T00:13:06.851Z,80.83
2022-10-17T00:15:34.880Z,80.88
2022-10-17T00:18:03.212Z,80.77
2022-10-17T00:20:32.967Z,80.80
2022-10-17T00:23:00.878Z,80.55
2022-10-17T00:25:28.971Z,80.19
2022-10-17T00:27:56.913Z,80.17
2022-10-17T00:30:25.027Z,79.85
2022-10-17T00:32:52.973Z,79.73
2022-10-17T00:35:20.913Z,79.76
2022-10-17T00:37:51.065Z,79.90
2022-10-17T00:40:19.535Z,80.30
2022-10-17T00:42:51.298Z,80.50
2022-10-17T00:45:24.320Z,80.30
2022-10-17T00:47:57.184Z,80.71
2022-10-17T00:50:25.902Z,80.84
2022-10-17T00:52:59.321Z,80.30
2022-10-17T00:55:31.667Z,80.61
2022-10-17T00:58:03.679Z,80.76
2022-10-17T01:00:32.355Z,80.84
2022-10-17T01:03:00.577Z,80.50
2022-10-17T01:05:28.657Z,80.29
2022-10-17T01:07:58.246Z,79.92
2022-10-17T01:10:34.212Z,80.17
2022-10-17T01:13:09.720Z,80.13
2022-10-17T01:15:50.498Z,80.70
2022-10-17T01:18:31.589Z,80.99
2022-10-17T01:21:29.625Z,81.16
2022-10-17T01:24:50.528Z,81.68
2022-10-17T01:27:44.433Z,81.67
2022-10-17T01:30:57.359Z,81.28
2022-10-17T01:33:47.853Z,81.64
2022-10-17T01:36:26.194Z,81.47
2022-10-17T01:39:00.764Z,81.66
2022-10-17T01:41:38.661Z,81.75
2022-10-17T01:44:13.618Z,81.80
2022-10-17T01:46:44.925Z,81.72
2022-10-17T01:49:18.420Z,81.76
2022-10-17T01:51:50.613Z,81.50
2022-10-17T01:54:24.367Z,81.19
2022-10-17T01:56:58.560Z,81.22
2022-10-17T01:59:31.037Z,81.34
2022-10-17T02:02:00.500Z,81.39
2022-10-17T02:04:30.295Z,81.28
2022-10-17T02:06:58.523Z,81.23
2022-10-17T02:09:28.314Z,81.75
2022-10-17T02:12:12.852Z,81.66
2022-10-17T02:14:53.387Z,81.64
2022-10-17T02:17:33.900Z,81.64
2022-10-17T02:20:11.768Z,81.52
2022-10-17T02:22:48.669Z,81.28
2022-10-17T02:25:24.969Z,81.55
2022-10-17T02:28:02.090Z,81.63
2022-10-17T02:30:35.580Z,81.44
2022-10-17T02:33:11.294Z,82.04
2022-10-17T02:35:47.498Z,82.13
2022-10-17T02:38:16.070Z,81.86
2022-10-17T02:40:47.595Z,81.50
2022-10-17T02:43:16.296Z,81.38
2022-10-17T02:45:44.298Z,81.85
2022-10-17T02:48:19.727Z,82.12
2022-10-17T02:50:59.424Z,82.18
2022-10-17T02:53:37.761Z,82.11
2022-10-17T02:56:14.175Z,81.61
2022-10-17T02:58:47.355Z,81.54
2022-10-17T03:01:16.901Z,81.74
2022-10-17T03:03:44.921Z,81.65
2022-10-17T03:06:14.323Z,81.45
2022-10-17T03:08:42.265Z,81.54
2022-10-17T03:11:10.290Z,81.64
2022-10-17T03:13:39.862Z,81.81
2022-10-17T03:16:08.584Z,81.85
2022-10-17T03:18:37.340Z,81.85
2022-10-17T03:21:05.963Z,81.56
2022-10-17T03:23:36.163Z,81.90
2022-10-17T03:26:06.570Z,81.85
2022-10-17T03:28:36.058Z,81.20
2022-10-17T03:31:08.541Z,81.08
2022-10-17T03:33:37.965Z,80.92
2022-10-17T03:36:09.697Z,81.00
2022-10-17T03:38:39.783Z,82.09
2022-10-17T03:41:08.715Z,81.86
2022-10-17T03:43:38.547Z,81.32
2022-10-17T03:46:08.146Z,81.58
2022-10-17T03:48:37.382Z,81.33
2022-10-17T03:51:08.352Z,82.06
2022-10-17T03:53:43.512Z,82.59
2022-10-17T03:56:13.813Z,82.43
2022-10-17T03:58:43.053Z,82.41
2022-10-17T04:01:14.092Z,81.80
2022-10-17T04:03:42.632Z,81.92
2022-10-17T04:06:12.852Z,82.08
2022-10-17T04:08:45.288Z,81.65
2022-10-17T04:11:21.316Z,81.77
2022-10-17T04:13:55.004Z,81.83
2022-10-17T04:16:25.689Z,82.10
2022-10-17T04:19:01.733Z,83.06
2022-10-17T04:21:36.118Z,83.09
2022-10-17T04:24:12.627Z,83.42
2022-10-17T04:26:50.072Z,83.18
2022-10-17T04:29:18.528Z,82.90
2022-10-17T04:31:52.307Z,83.10
2022-10-17T04:34:35.173Z,83.06
2022-10-17T04:37:03.235Z,82.51
2022-10-17T04:39:32.697Z,82.31
2022-10-17T04:42:00.724Z,82.58
2022-10-17T04:44:30.937Z,83.04
2022-10-17T04:46:59.953Z,82.62
2022-10-17T04:49:28.577Z,82.99
2022-10-17T04:52:01.963Z,82.97
2022-10-17T04:54:42.892Z,82.93
2022-10-17T04:57:12.470Z,83.35
2022-10-17T04:59:42.102Z,83.42
2022-10-17T05:02:22.184Z,83.57
2022-10-17T05:04:50.206Z,83.06
2022-10-17T05:07:18.600Z,83.21
2022-10-17T05:09:47.883Z,83.44
2022-10-17T05:12:18.139Z,83.69
2022-10-17T05:14:47.136Z,82.99
2022-10-17T05:17:15.617Z,83.25
2022-10-17T05:19:43.507Z,82.86
2022-10-17T05:22:11.437Z,83.03
2022-10-17T05:24:40.572Z,83.87
2022-10-17T05:27:11.210Z,84.68
2022-10-17T05:29:39.765Z,84.55
2022-10-17T05:32:16.287Z,84.72
2022-10-17T05:34:44.481Z,84.76
2022-10-17T05:37:12.717Z,84.40
2022-10-17T05:39:45.845Z,84.74
2022-10-17T05:42:17.310Z,83.58
2022-10-17T05:44:46.570Z,83.54
2022-10-17T05:47:17.227Z,83.50
2022-10-17T05:49:49.982Z,84.14
2022-10-17T05:52:24.563Z,83.88
2022-10-17T05:55:00.836Z,83.77
2022-10-17T05:57:30.233Z,84.28
2022-10-17T05:59:59.149Z,84.39
2022-10-17T06:02:28.364Z,84.22
2022-10-17T06:04:57.216Z,83.89
2022-10-17T06:07:25.720Z,84.13
2022-10-17T06:09:54.281Z,83.42
2022-10-17T06:12:24.696Z,83.49
2022-10-17T06:14:54.196Z,83.75
2022-10-17T06:17:22.344Z,83.86
2022-10-17T06:19:50.290Z,83.23
2022-10-17T06:22:18.295Z,82.81
2022-10-17T06:24:47.751Z,82.93
2022-10-17T06:27:15.918Z,83.19
2022-10-17T06:29:43.865Z,83.47
2022-10-17T06:32:15.113Z,83.95
2022-10-17T06:34:54.452Z,84.19
2022-10-17T06:37:22.579Z,83.80
2022-10-17T06:39:50.690Z,83.96
2022-10-17T06:42:22.176Z,83.94
2022-10-17T06:45:03.268Z,83.88
2022-10-17T06:47:55.468Z,84.03
2022-10-17T06:50:37.753Z,84.08
2022-10-17T06:53:12.313Z,83.59
2022-10-17T06:56:03.038Z,83.50
2022-10-17T06:58:47.704Z,83.83
2022-10-17T07:01:32.625Z,84.03
2022-10-17T07:04:03.161Z,83.65
2022-10-17T07:06:32.601Z,83.82
2022-10-17T07:09:07.662Z,83.66
2022-10-17T07:11:40.259Z,84.35
2022-10-17T07:14:08.663Z,84.55
2022-10-17T07:16:37.114Z,84.43
2022-10-17T07:19:20.648Z,83.98
2022-10-17T07:21:49.097Z,83.88
2022-10-17T07:24:17.496Z,84.10
2022-10-17T07:26:53.528Z,83.76
2022-10-17T07:29:21.784Z,83.38
2022-10-17T07:32:04.029Z,83.04
2022-10-17T07:34:34.545Z,82.98
2022-10-17T07:37:03.301Z,82.50
2022-10-17T07:39:31.285Z,82.82
2022-10-17T07:41:59.973Z,82.91
2022-10-17T07:44:27.955Z,83.61
2022-10-17T07:46:55.923Z,84.47
2022-10-17T07:49:23.927Z,85.05
2022-10-17T07:51:54.060Z,85.25
2022-10-17T07:54:22.021Z,84.93
2022-10-17T07:56:50.761Z,84.58
2022-10-17T07:59:19.210Z,84.21
2022-10-17T08:01:47.168Z,84.43
2022-10-17T08:04:16.843Z,84.04
2022-10-17T08:06:45.167Z,83.90
2022-10-17T08:09:14.497Z,83.42
2022-10-17T08:11:43.992Z,82.13
2022-10-17T08:14:12.472Z,80.95
2022-10-17T08:16:40.767Z,80.71
2022-10-17T08:21:43.638Z,80.88
2022-10-17T08:24:11.597Z,81.39
2022-10-17T08:26:43.429Z,81.43
2022-10-17T08:29:14.727Z,81.82
2022-10-17T08:31:46.455Z,84.36
2022-10-17T08:34:16.662Z,85.05
2022-10-17T08:36:44.587Z,83.97
2022-10-17T08:39:12.591Z,84.35
2022-10-17T08:42:03.834Z,83.73
2022-10-17T08:44:41.801Z,83.92
2022-10-17T08:47:15.666Z,84.26
2022-10-17T08:49:51.460Z,84.14
2022-10-17T08:52:27.432Z,82.93
2022-10-17T08:54:55.468Z,81.85
2022-10-17T08:57:24.853Z,80.21
2022-10-17T08:59:55.352Z,78.63
2022-10-17T09:02:50.074Z,76.50
2022-10-17T09:05:28.342Z,75.81
2022-10-17T09:08:18.555Z,73.99
2022-10-17T09:10:56.969Z,73.95
2022-10-17T09:13:38.623Z,73.88
2022-10-17T09:16:30.036Z,73.79
2022-10-17T09:19:04.255Z,73.40
2022-10-17T09:21:43.142Z,72.95
2022-10-17T09:24:16.242Z,71.95
2022-10-17T09:26:46.930Z,71.73
2022-10-17T09:29:24.148Z,69.21
2022-10-17T09:32:03.970Z,69.52
2022-10-17T09:34:33.959Z,70.34
2022-10-17T09:37:03.573Z,70.61
2022-10-17T09:39:32.133Z,71.23
2022-10-17T09:42:01.734Z,71.80
2022-10-17T09:44:34.278Z,71.67
2022-10-17T09:47:14.094Z,71.74
2022-10-17T09:49:43.875Z,72.28
2022-10-17T09:52:16.495Z,71.91
2022-10-17T09:54:47.854Z,72.30
2022-10-17T09:57:17.184Z,71.78
2022-10-17T09:59:48.916Z,70.45
2022-10-17T10:02:22.759Z,70.34
2022-10-17T10:05:04.707Z,69.00
2022-10-17T10:07:35.836Z,69.70
2022-10-17T10:10:07.152Z,69.81
2022-10-17T10:12:38.878Z,69.82
2022-10-17T10:15:37.774Z,68.64
2022-10-17T10:21:08.532Z,68.69
2022-10-17T10:23:40.096Z,68.03
2022-10-17T10:26:21.668Z,67.04
2022-10-17T10:29:01.928Z,66.99
2022-10-17T10:31:34.848Z,66.00
2022-10-17T10:34:14.264Z,64.97
2022-10-17T10:36:48.613Z,64.39
2022-10-17T10:39:36.291Z,63.52
2022-10-17T10:42:07.483Z,64.84
2022-10-17T10:44:40.781Z,63.82
2022-10-17T10:47:22.583Z,63.07
2022-10-17T10:49:53.732Z,63.54
2022-10-17T10:52:31.403Z,63.85
2022-10-17T10:55:06.259Z,64.19
2022-10-17T10:57:37.605Z,64.32
2022-10-17T11:00:15.673Z,64.10
2022-10-17T11:02:53.847Z,64.08
2022-10-17T11:05:37.502Z,65.05
2022-10-17T11:08:12.957Z,63.79
2022-10-17T11:10:45.725Z,63.70
2022-10-17T11:13:19.070Z,63.83
2022-10-17T11:15:50.387Z,63.76
2022-10-17T11:18:25.674Z,63.57
2022-10-17T11:20:58.194Z,63.62
2022-10-17T11:23:35.492Z,63.38
2022-10-17T11:26:08.352Z,62.94
2022-10-17T11:28:36.458Z,63.91
2022-10-17T11:31:08.105Z,64.31
2022-10-17T11:33:46.681Z,61.46
2022-10-17T11:36:17.923Z,63.27
2022-10-17T11:38:51.914Z,64.15
2022-10-17T11:41:24.083Z,64.88
2022-10-17T11:43:55.843Z,62.65
2022-10-17T11:46:26.151Z,62.12
2022-10-17T11:49:06.892Z,62.11
2022-10-17T11:52:01.644Z,61.92
2022-10-17T11:54:34.782Z,61.96
2022-10-17T11:57:16.594Z,61.39
2022-10-17T12:00:01.852Z,61.45
2022-10-17T12:02:39.890Z,62.95
2022-10-17T12:05:22.964Z,61.63
2022-10-17T12:07:57.777Z,60.68
2022-10-17T12:10:36.305Z,60.39
2022-10-17T12:13:43.747Z,56.20
2022-10-17T12:16:43.898Z,58.73
2022-10-17T12:19:25.679Z,58.57
2022-10-17T12:22:00.428Z,58.07
2022-10-17T12:24:35.697Z,58.85
2022-10-17T12:27:32.753Z,60.22
2022-10-17T12:30:02.729Z,60.62
2022-10-17T12:32:47.011Z,60.53
2022-10-17T12:35:23.330Z,59.57
2022-10-17T12:38:20.712Z,61.24
2022-10-17T12:40:56.767Z,59.82
2022-10-17T12:43:58.489Z,59.70
2022-10-17T12:46:48.519Z,53.91
2022-10-17T12:49:42.515Z,58.28
2022-10-17T12:52:36.782Z,56.21
2022-10-17T12:55:14.697Z,56.51
2022-10-17T12:57:50.210Z,56.44
2022-10-17T13:00:23.227Z,56.92
2022-10-17T13:02:55.657Z,58.02
2022-10-17T13:05:29.514Z,57.12
2022-10-17T13:08:00.612Z,57.67
2022-10-17T13:10:34.245Z,57.46
2022-10-17T13:13:10.177Z,57.09
2022-10-17T13:15:38.838Z,56.96
2022-10-17T13:18:07.318Z,57.09
2022-10-17T13:20:35.462Z,56.20
2022-10-17T13:23:03.859Z,57.03
2022-10-17T13:25:35.518Z,57.16
2022-10-17T13:28:14.366Z,57.56
2022-10-17T13:30:49.653Z,55.75
2022-10-17T13:33:32.187Z,53.84
2022-10-17T13:36:01.438Z,55.83
2022-10-17T13:38:34.890Z,54.76
2022-10-17T13:41:34.971Z,53.82
2022-10-17T13:44:04.496Z,55.47
2022-10-17T13:46:38.373Z,56.09
2022-10-17T13:49:16.599Z,53.09
2022-10-17T13:51:46.438Z,56.24
2022-10-17T13:54:32.932Z,59.27
2022-10-17T13:57:04.694Z,57.36
2022-10-17T13:59:40.169Z,57.94
2022-10-17T14:02:14.589Z,57.14
2022-10-17T14:05:14.977Z,56.22
2022-10-17T14:07:58.289Z,56.83
2022-10-17T14:10:26.664Z,56.49
2022-10-17T14:12:56.964Z,57.10
2022-10-17T14:15:28.268Z,55.73
2022-10-17T14:17:58.632Z,54.69
2022-10-17T14:23:36.297Z,52.10
2022-10-17T14:26:23.099Z,52.77
2022-10-17T14:29:05.676Z,54.52
2022-10-17T14:31:35.197Z,53.97
2022-10-17T14:34:04.064Z,55.92
2022-10-17T14:36:36.986Z,55.82
2022-10-17T14:39:10.583Z,56.34
2022-10-17T14:41:45.748Z,56.93
2022-10-17T14:44:31.798Z,58.52
2022-10-17T14:47:18.356Z,57.22
2022-10-17T14:49:52.698Z,59.34
2022-10-17T14:52:29.710Z,58.01
2022-10-17T14:54:59.154Z,59.45
2022-10-17T14:57:30.311Z,59.53
2022-10-17T15:00:00.113Z,59.35
2022-10-17T15:02:30.959Z,59.02
2022-10-17T15:04:59.178Z,59.40
2022-10-17T15:07:27.216Z,58.97
2022-10-17T15:09:55.253Z,60.12
2022-10-17T15:12:25.044Z,60.24
2022-10-17T15:14:54.147Z,61.18
2022-10-17T15:17:27.309Z,61.67
2022-10-17T15:19:55.904Z,61.52
2022-10-17T15:22:24.581Z,61.47
2022-10-17T15:24:52.538Z,61.46
2022-10-17T15:27:22.330Z,61.41
2022-10-17T15:29:51.585Z,61.75
2022-10-17T15:32:19.938Z,61.46
2022-10-17T15:34:49.355Z,62.28
2022-10-17T15:37:22.031Z,61.78
2022-10-17T15:39:53.609Z,62.51
2022-10-17T15:42:23.336Z,62.96
2022-10-17T15:44:51.312Z,63.08
2022-10-17T15:47:25.454Z,63.22
2022-10-17T15:49:55.993Z,63.15
2022-10-17T15:52:24.764Z,63.95
2022-10-17T15:54:53.094Z,63.59
2022-10-17T15:57:23.816Z,64.13
2022-10-17T15:59:53.125Z,64.65
2022-10-17T16:02:24.964Z,64.98
2022-10-17T16:04:54.744Z,65.25
2022-10-17T16:07:22.855Z,66.28
2022-10-17T16:09:50.832Z,66.45
2022-10-17T16:12:24.776Z,67.68
2022-10-17T16:14:52.714Z,68.43
2022-10-17T16:17:20.710Z,68.40
2022-10-17T16:19:48.633Z,68.44
2022-10-17T16:22:26.125Z,68.52
2022-10-17T16:24:58.629Z,68.51
2022-10-17T16:27:26.915Z,69.09
2022-10-17T16:29:54.872Z,69.76
2022-10-17T16:32:22.770Z,70.07
2022-10-17T16:34:50.724Z,69.95
2022-10-17T16:37:18.652Z,70.66
2022-10-17T16:39:52.368Z,70.75
2022-10-17T16:42:20.779Z,71.23
2022-10-17T16:44:49.323Z,71.13
2022-10-17T16:47:17.603Z,71.40
2022-10-17T16:49:45.826Z,71.34
2022-10-17T16:52:14.358Z,71.21
2022-10-17T16:54:42.394Z,71.65
2022-10-17T16:57:11.819Z,71.72
2022-10-17T16:59:39.899Z,71.76
2022-10-17T17:02:07.892Z,72.19
2022-10-17T17:04:35.863Z,72.76
2022-10-17T17:07:03.869Z,72.63
2022-10-17T17:09:31.898Z,73.45
2022-10-17T17:11:59.830Z,73.72
2022-10-17T17:14:30.238Z,74.60
2022-10-17T17:16:58.229Z,74.32
2022-10-17T17:19:26.192Z,74.81
2022-10-17T17:21:54.101Z,75.03
2022-10-17T17:24:22.544Z,74.45
2022-10-17T17:26:53.246Z,74.67
2022-10-17T17:29:23.499Z,74.65
2022-10-17T17:31:52.892Z,74.31
2022-10-17T17:34:20.936Z,74.64
2022-10-17T17:36:48.836Z,75.27
2022-10-17T17:39:17.053Z,75.04
2022-10-17T17:41:45.737Z,74.81
2022-10-17T17:44:16.762Z,74.71
2022-10-17T17:46:45.614Z,74.97
2022-10-17T17:49:15.076Z,75.06
2022-10-17T17:51:46.345Z,75.09
2022-10-17T17:54:15.123Z,74.65
2022-10-17T17:56:43.112Z,74.60
2022-10-17T17:59:13.873Z,75.04
2022-10-17T18:01:42.559Z,75.73
2022-10-17T18:04:10.998Z,75.46
2022-10-17T18:06:41.053Z,75.09
2022-10-17T18:09:09.998Z,75.08
2022-10-17T18:11:38.946Z,75.85
2022-10-17T18:14:08.486Z,75.89
2022-10-17T18:16:38.202Z,76.13
2022-10-17T18:19:08.973Z,76.22
2022-10-17T18:21:38.155Z,76.98
2022-10-17T18:24:08.590Z,77.84
2022-10-17T18:26:37.110Z,78.68
2022-10-17T18:29:05.664Z,79.03
2022-10-17T18:31:35.858Z,78.82
2022-10-17T18:34:05.526Z,79.06
2022-10-17T18:36:34.963Z,79.86
2022-10-17T18:39:03.597Z,79.75
2022-10-17T18:41:33.944Z,79.86
2022-10-17T18:44:02.955Z,80.21
2022-10-17T18:46:35.710Z,80.16
2022-10-17T18:49:04.730Z,80.39
2022-10-17T18:51:32.718Z,80.77
2022-10-17T18:54:02.324Z,80.90
2022-10-17T18:56:32.674Z,81.05
2022-10-17T18:59:00.677Z,81.03
2022-10-17T19:01:28.723Z,81.62
2022-10-17T19:03:58.181Z,81.85
2022-10-17T19:06:28.171Z,81.54
2022-10-17T19:08:56.093Z,81.77
2022-10-17T19:11:25.822Z,81.84
2022-10-17T19:13:57.061Z,81.96
2022-10-17T19:16:27.184Z,81.94
2022-10-17T19:18:57.039Z,82.35
2022-10-17T19:21:25.726Z,82.24
2022-10-17T19:23:55.363Z,82.84
2022-10-17T19:26:24.016Z,82.97
2022-10-17T19:28:53.838Z,83.35
2022-10-17T19:31:27.127Z,83.24
2022-10-17T19:33:56.700Z,83.29
2022-10-17T19:36:30.413Z,83.23
2022-10-17T19:39:02.524Z,83.44
2022-10-17T19:41:30.466Z,83.71
2022-10-17T19:43:58.472Z,83.67
2022-10-17T19:46:29.310Z,83.80
2022-10-17T19:48:57.932Z,84.14
2022-10-17T19:51:26.418Z,83.86
2022-10-17T19:53:55.737Z,83.51
2022-10-17T19:56:25.186Z,83.87
2022-10-17T19:58:55.353Z,83.52
2022-10-17T20:01:25.140Z,83.28
2022-10-17T20:03:55.177Z,83.50
2022-10-17T20:06:23.595Z,83.84
2022-10-17T20:08:51.691Z,84.75
2022-10-17T20:11:21.680Z,84.95
2022-10-17T20:13:50.199Z,85.10
2022-10-17T20:16:21.338Z,85.76
2022-10-17T20:18:50.239Z,86.36
2022-10-17T20:21:22.357Z,86.00
2022-10-17T20:23:50.687Z,85.96
2022-10-17T20:29:11.879Z,85.79
2022-10-17T20:31:41.456Z,85.50
2022-10-17T20:34:12.517Z,85.63
2022-10-17T20:36:42.468Z,85.61
2022-10-17T20:39:11.890Z,86.08
2022-10-17T20:41:40.061Z,86.11
2022-10-17T20:44:08.916Z,86.04
2022-10-17T20:46:39.824Z,86.01
2022-10-17T20:49:15.387Z,86.20
2022-10-17T20:51:44.885Z,86.31
2022-10-17T20:54:12.933Z,86.35
2022-10-17T20:56:41.165Z,86.35
2022-10-17T20:59:13.144Z,86.47
2022-10-17T21:01:41.198Z,86.65
2022-10-17T21:04:44.067Z,86.52
2022-10-17T21:06:59.249Z,86.31
2022-10-17T21:09:27.617Z,86.30
2022-10-17T21:11:55.706Z,86.48
2022-10-17T21:14:25.339Z,86.23
2022-10-17T21:16:53.592Z,86.10
2022-10-17T21:19:22.778Z,86.70
2022-10-17T21:21:51.438Z,87.65
2022-10-17T21:24:21.006Z,87.61
2022-10-17T21:26:55.388Z,87.77
2022-10-17T21:29:24.744Z,87.47
2022-10-17T21:31:53.027Z,87.22
2022-10-17T21:34:24.603Z,87.13
2022-10-17T21:36:53.430Z,87.54
2022-10-17T21:39:24.247Z,87.77
2022-10-17T21:41:52.625Z,87.83
2022-10-17T21:44:24.025Z,87.39
2022-10-17T21:46:52.791Z,87.42
2022-10-17T21:49:22.764Z,87.43
2022-10-17T21:51:51.469Z,87.25
2022-10-17T21:54:21.033Z,86.94
2022-10-17T21:56:50.693Z,87.07
2022-10-17T21:59:18.698Z,87.10
2022-10-17T22:01:47.346Z,87.28
2022-10-17T22:04:17.202Z,87.43
2022-10-17T22:06:47.144Z,88.55
2022-10-17T22:09:17.348Z,89.34
2022-10-17T22:11:47.372Z,89.27
2022-10-17T22:14:21.456Z,88.94
2022-10-17T22:16:50.374Z,88.89
2022-10-17T22:19:20.862Z,88.66
2022-10-17T22:21:48.867Z,88.49
2022-10-17T22:24:18.568Z,88.19
2022-10-17T22:26:46.661Z,87.79
2022-10-17T22:29:16.187Z,87.71
2022-10-17T22:31:44.191Z,87.92
2022-10-17T22:34:13.807Z,87.67
2022-10-17T22:36:42.433Z,87.54
2022-10-17T22:39:10.680Z,87.23
2022-10-17T22:41:38.655Z,86.99
2022-10-17T22:44:06.982Z,87.11
2022-10-17T22:46:36.464Z,87.00
2022-10-17T22:49:05.084Z,87.45
2022-10-17T22:51:33.367Z,88.93
2022-10-17T22:54:01.354Z,89.93
2022-10-17T22:56:29.359Z,89.83
2022-10-17T22:58:57.378Z,89.60
2022-10-17T23:01:26.836Z,89.45
2022-10-17T23:03:56.358Z,89.43
2022-10-17T23:06:24.633Z,89.69
2022-10-17T23:08:52.725Z,90.08
2022-10-17T23:11:21.314Z,90.18
2022-10-17T23:13:49.384Z,90.50
2022-10-17T23:16:17.400Z,90.38
2022-10-17T23:18:45.364Z,90.46
2022-10-17T23:21:14.752Z,90.47
2022-10-17T23:23:42.729Z,90.07
2022-10-17T23:26:12.424Z,89.91
2022-10-17T23:28:41.096Z,89.85
2022-10-17T23:31:14.051Z,89.79
2022-10-17T23:33:42.415Z,89.50
2022-10-17T23:36:11.347Z,89.83
2022-10-17T23:38:41.455Z,89.57
2022-10-17T23:41:09.951Z,89.59
2022-10-17T23:43:38.779Z,90.07
2022-10-17T23:46:07.861Z,89.99
2022-10-17T23:48:35.978Z,90.13
2022-10-17T23:51:04.533Z,89.98
2022-10-17T23:53:32.653Z,90.13
2022-10-17T23:56:02.027Z,90.72
2022-10-17T23:58:30.296Z,90.74
